This demonstration page uses our WeatherBlox Daily Observations layout. Learn more.

41.55636, -103.73856

Hourly Observations for October 10, 2019

Temp ( °F °C ) Dew Point ( °F °C ) Humidity (%) Winds ( mph kmh ) Pressure ( in mb ) Visibility ( mi km ) Precip ( " mm )
12:58 am 00:58 Cloudy 37 2.9 30 -1.1 75 75 N 22 35 29.93 1014 10 16.0934 0 0
1:58 am 01:58 Cloudy with Light Rain 33 0.4 31 -0.4 94 94 N 20 31 30.01 1016 3 4.82802 0 0
2:58 am 02:58 Cloudy with Light Freezing Drizzle 30 -1.2 28 -2.2 93 93 N 20 31 30 1016 7 11.26538 0 0
3:58 am 03:58 Mostly Cloudy with Scattered Snow Showers 29 -1.6 28 -2.4 94 94 N 15 24 30.04 1017 2.75 4.425685 0 0
4:58 am 04:58 Mostly Cloudy with Light Thunderstorms 27 -2.9 25 -3.9 93 93 N 10 17 30.06 1018 2.5 4.02335 0 0
5:58 am 05:58 Mostly Cloudy with Heavy Snow 25 -3.9 24 -4.4 96 96 NNW 15 24 30.09 1019 5 8.0467 0.01 0.254
6:58 am 06:58 Cloudy with Light Snow 24 -4.4 23 -5.1 95 95 NNW 14 22 30.09 1019 2 3.21868 0 0
7:58 am 07:58 Mostly Cloudy with Light Freezing Rain 23 -5 21 -6.2 91 91 NNW 16 26 30.14 1021 4 6.43736 0 0
8:58 am 08:58 Mostly Cloudy with Light Freezing Rain 23 -5.2 20 -6.6 90 90 N 13 20 30.15 1021 10 16.0934 0 0
9:58 am 09:58 Mostly Cloudy 22 -5.3 19 -7.1 87 87 N 15 24 30.15 1021 10 16.0934 0 0
10:58 am 10:58 Mostly Cloudy with Light Snow Showers 22 -5.8 19 -7 91 91 NNW 15 24 30.19 1022 4 6.43736 0 0
11:58 am 11:58 Mostly Cloudy with Scattered Snow Showers 21 -6.1 17 -8.1 86 86 NNW 18 30 30.2 1023 10 16.0934 0 0
12:58 pm 12:58 Mostly Cloudy with Scattered Snow Showers 20 -6.5 18 -8 89 89 NNW 14 22 30.25 1024 8 12.87472 0 0
1:58 pm 13:58 Cloudy with Light Snow 20 -6.8 18 -8 91 91 NNW 15 24 30.3 1026 5 8.0467 0 0
2:58 pm 14:58 Cloudy with Snow 20 -6.8 18 -7.6 94 94 NNW 14 22 30.34 1027 5 8.0467 0 0
3:58 pm 15:58 Windy with Snow Likely 20 -6.7 17 -8.2 89 89 NNW 20 31 30.34 1027 1 1.60934 0 0
5:56 pm 17:56 Windy with Snow Likely 21 -6.3 18 -8 88 88 NNW 20 31 30.34 1027 3 4.82802 0 0
7:58 pm 19:58 Mostly Cloudy 26 -3.6 15 -9.6 64 64 NNW 26 43 30.32 1027 10 16.0934 0 0
8:58 pm 20:58 Mostly Cloudy 26 -3.5 16 -8.8 67 67 NNW 25 41 30.32 1027 10 16.0934 0 0
9:58 pm 21:58 Mostly Cloudy 26 -3.5 14 -9.9 62 62 NNW 22 35 30.34 1027 10 16.0934 0 0
10:58 pm 22:58 Mostly Cloudy 25 -4 15 -9.7 65 65 NNW 22 35 30.36 1028 10 16.0934 0 0
11:58 pm 23:58 Mostly Cloudy 24 -4.7 13 -10.3 65 65 NNW 22 35 30.4 1029 10 16.0934 0 0

Powered by AerisWeather